Time;durP1;ratioP1;P1;durP2;ratioP2;P2;SDS_P1;SDS_P2;PMS_P1;PMS_P2;Temp;Humidity;BMP_temperature;BMP_pressure;BME280_temperature;BME280_humidity;BME280_pressure;Samples;Min_cycle;Max_cycle;Signal;HPM_P1;HPM_P2
2023/01/26 00:01:22;;;;;;;27.73;12.13;;;;;;;;;;5071464;28;20048;-71
2023/01/26 00:03:49;;;;;;;28.35;13.43;;;;;;;;;;5071458;28;20586;-71
2023/01/26 00:06:17;;;;;;;24.45;12.65;;;;;;;;;;5072035;28;20024;-71
2023/01/26 00:08:48;;;;;;;24.52;12.25;;;;;;;;;;5071752;28;20054;-84
2023/01/26 00:11:15;;;;;;;25.13;12.00;;;;;;;;;;5071287;28;20052;-81
2023/01/26 00:13:41;;;;;;;25.02;11.88;;;;;;;;;;5071414;28;20025;-84
2023/01/26 00:16:08;;;;;;;26.08;12.70;;;;;;;;;;5071442;28;20032;-82
2023/01/26 00:18:36;;;;;;;29.10;12.02;;;;;;;;;;5070787;28;20031;-83
2023/01/26 00:21:03;;;;;;;25.33;12.00;;;;;;;;;;5071297;28;20027;-70
2023/01/26 00:23:31;;;;;;;25.15;12.40;;;;;;;;;;5071493;28;20476;-82
2023/01/26 00:25:56;;;;;;;23.85;11.50;;;;;;;;;;5071265;28;20049;-80
2023/01/26 00:28:22;;;;;;;25.33;12.35;;;;;;;;;;5071498;28;20032;-84
2023/01/26 00:30:47;;;;;;;27.10;12.18;;;;;;;;;;5070890;28;20033;-84
2023/01/26 00:33:13;;;;;;;24.48;11.45;;;;;;;;;;5070879;28;20028;-81
2023/01/26 00:35:43;;;;;;;24.42;11.40;;;;;;;;;;5071270;28;20090;-75
2023/01/26 00:38:09;;;;;;;25.63;11.95;;;;;;;;;;5071414;28;20383;-83
2023/01/26 00:40:35;;;;;;;26.65;12.18;;;;;;;;;;5070800;28;20031;-83
2023/01/26 00:43:00;;;;;;;25.40;11.70;;;;;;;;;;5071549;28;20017;-84
2023/01/26 00:45:26;;;;;;;23.52;11.25;;;;;;;;;;5070989;28;20028;-83
2023/01/26 00:47:52;;;;;;;24.58;11.55;;;;;;;;;;5071079;28;20041;-84
2023/01/26 00:50:17;;;;;;;23.60;11.40;;;;;;;;;;5070171;28;20483;-79
2023/01/26 00:52:43;;;;;;;24.15;11.73;;;;;;;;;;5070731;28;20101;-83
2023/01/26 00:55:08;;;;;;;22.95;11.23;;;;;;;;;;5070755;28;20023;-82
2023/01/26 00:57:33;;;;;;;24.42;11.70;;;;;;;;;;5070542;28;20031;-74
2023/01/26 00:59:59;;;;;;;25.88;12.05;;;;;;;;;;5070742;28;20060;-74
2023/01/26 01:02:24;;;;;;;24.40;11.98;;;;;;;;;;5070808;28;20098;-76
2023/01/26 01:04:50;;;;;;;25.75;11.20;;;;;;;;;;5072034;28;20021;-81
2023/01/26 01:07:15;;;;;;;22.38;11.75;;;;;;;;;;5059590;28;20082;-84
2023/01/26 01:09:40;;;;;;;25.13;10.90;;;;;;;;;;5074043;28;20027;-81
2023/01/26 01:12:06;;;;;;;24.08;11.90;;;;;;;;;;5077337;28;20071;-82
2023/01/26 01:14:32;;;;;;;23.80;11.25;;;;;;;;;;5077942;28;20021;-81
2023/01/26 01:16:57;;;;;;;23.17;11.18;;;;;;;;;;5076598;28;20103;-83
2023/01/26 01:19:23;;;;;;;24.20;11.10;;;;;;;;;;5070852;28;20048;-83
2023/01/26 01:21:48;;;;;;;25.45;11.75;;;;;;;;;;5070907;28;20149;-83
2023/01/26 01:24:14;;;;;;;23.65;11.73;;;;;;;;;;5070737;28;20031;-83
2023/01/26 01:26:39;;;;;;;23.30;10.80;;;;;;;;;;5052129;28;20027;-82
2023/01/26 01:29:06;;;;;;;22.38;12.10;;;;;;;;;;5070415;28;20016;-79
2023/01/26 01:31:32;;;;;;;26.75;12.57;;;;;;;;;;5051729;28;20550;-80
2023/01/26 01:33:57;;;;;;;22.98;11.50;;;;;;;;;;5069953;28;20499;-83
2023/01/26 01:36:23;;;;;;;22.85;11.23;;;;;;;;;;5069906;28;20028;-83
2023/01/26 01:38:49;;;;;;;23.92;11.48;;;;;;;;;;5069948;28;20025;-79
2023/01/26 01:41:19;;;;;;;24.90;11.13;;;;;;;;;;5069426;28;20025;-84
2023/01/26 01:43:45;;;;;;;23.38;11.40;;;;;;;;;;5070074;28;20037;-84
2023/01/26 01:46:23;;;;;;;22.38;10.80;;;;;;;;;;5069511;28;20085;-76
2023/01/26 01:49:18;;;;;;;20.33;10.57;;;;;;;;;;5069722;28;20044;-83
2023/01/26 01:52:09;;;;;;;23.98;11.32;;;;;;;;;;5048190;28;20093;-79
2023/01/26 01:54:43;;;;;;;23.40;10.68;;;;;;;;;;5069650;28;20033;-84
2023/01/26 01:57:17;;;;;;;21.80;10.95;;;;;;;;;;5069424;28;20166;-83
2023/01/26 01:59:50;;;;;;;22.80;10.60;;;;;;;;;;5069630;28;20025;-83
2023/01/26 02:02:15;;;;;;;22.52;10.82;;;;;;;;;;5069480;28;20050;-82
2023/01/26 02:04:41;;;;;;;22.63;10.80;;;;;;;;;;5051331;28;20392;-82
2023/01/26 02:07:08;;;;;;;22.27;10.52;;;;;;;;;;5069245;28;20033;-83
2023/01/26 02:12:25;;;;;;;23.30;11.30;;;;;;;;;;5069518;28;20038;-84
2023/01/26 02:14:52;;;;;;;22.83;10.85;;;;;;;;;;5071261;28;20059;-83
2023/01/26 02:17:17;;;;;;;19.85;9.82;;;;;;;;;;5052389;28;20058;-83
2023/01/26 02:20:03;;;;;;;22.67;10.57;;;;;;;;;;5069554;28;20126;-81
2023/01/26 02:22:56;;;;;;;19.95;9.95;;;;;;;;;;5050999;28;20031;-83
2023/01/26 02:25:51;;;;;;;19.65;10.18;;;;;;;;;;5069292;28;20083;-84
2023/01/26 02:28:18;;;;;;;18.00;9.50;;;;;;;;;;5054317;28;20024;-83
2023/01/26 02:30:43;;;;;;;21.63;10.18;;;;;;;;;;5068891;28;20067;-83
2023/01/26 02:33:24;;;;;;;19.80;9.80;;;;;;;;;;5069102;28;20055;-84
2023/01/26 02:35:50;;;;;;;18.65;9.60;;;;;;;;;;5069243;28;20063;-84
2023/01/26 02:38:18;;;;;;;17.55;9.25;;;;;;;;;;5069483;28;20064;-85
2023/01/26 02:40:54;;;;;;;19.10;10.07;;;;;;;;;;5068897;28;20029;-82
2023/01/26 02:43:22;;;;;;;21.95;10.07;;;;;;;;;;5069278;28;20033;-81
2023/01/26 02:45:47;;;;;;;22.13;10.05;;;;;;;;;;5068799;28;20025;-84
2023/01/26 02:48:13;;;;;;;19.73;10.20;;;;;;;;;;5068907;28;20039;-85
2023/01/26 02:50:38;;;;;;;20.60;9.60;;;;;;;;;;5068735;28;20024;-79
2023/01/26 02:53:03;;;;;;;21.30;10.32;;;;;;;;;;5069093;28;20031;-83
2023/01/26 02:55:29;;;;;;;21.17;10.75;;;;;;;;;;5068750;28;20472;-84
2023/01/26 02:58:03;;;;;;;22.92;10.70;;;;;;;;;;5069041;28;20013;-84
2023/01/26 03:00:40;;;;;;;21.67;10.90;;;;;;;;;;5051035;28;20439;-84
2023/01/26 03:03:14;;;;;;;19.45;10.07;;;;;;;;;;5070928;28;20036;-85
2023/01/26 03:05:40;;;;;;;18.42;9.63;;;;;;;;;;5068857;28;20029;-81
2023/01/26 03:08:06;;;;;;;20.10;10.18;;;;;;;;;;5068719;28;20022;-84
2023/01/26 03:10:32;;;;;;;20.65;10.13;;;;;;;;;;5068806;28;20024;-85
2023/01/26 03:12:58;;;;;;;21.63;10.90;;;;;;;;;;5050626;28;20020;-82
2023/01/26 03:15:46;;;;;;;19.38;9.55;;;;;;;;;;5068869;28;20503;-83
2023/01/26 03:29:15;;;;;;;18.63;9.68;;;;;;;;;;5068446;28;20036;-68
2023/01/26 03:31:41;;;;;;;18.05;9.35;;;;;;;;;;5068289;28;20017;-72
2023/01/26 03:34:06;;;;;;;19.83;9.70;;;;;;;;;;5069832;28;20044;-78
2023/01/26 03:36:32;;;;;;;18.13;9.05;;;;;;;;;;5072202;28;20027;-80
2023/01/26 03:38:57;;;;;;;19.33;9.88;;;;;;;;;;5072623;28;20051;-80
2023/01/26 03:57:47;;;;;;;17.27;8.60;;;;;;;;;;5072115;28;20039;-81
2023/01/26 04:00:14;;;;;;;17.63;9.43;;;;;;;;;;5071886;28;20423;-79
2023/01/26 04:08:23;;;;;;;17.05;8.65;;;;;;;;;;5071654;28;20035;-83
2023/01/26 04:10:53;;;;;;;16.63;8.88;;;;;;;;;;5071848;28;20024;-84
2023/01/26 04:21:34;;;;;;;17.60;8.52;;;;;;;;;;5071450;28;20078;-83
2023/01/26 04:24:08;;;;;;;18.58;9.45;;;;;;;;;;5071508;28;20502;-72
2023/01/26 04:26:35;;;;;;;16.27;8.52;;;;;;;;;;5071448;28;20074;-82
2023/01/26 04:29:06;;;;;;;18.50;9.43;;;;;;;;;;5071570;28;20033;-83
2023/01/26 04:31:32;;;;;;;17.67;9.30;;;;;;;;;;5071149;28;20024;-75
2023/01/26 04:33:59;;;;;;;18.00;9.10;;;;;;;;;;5071036;28;20025;-83
2023/01/26 04:36:24;;;;;;;17.73;9.13;;;;;;;;;;5071375;28;20036;-85
2023/01/26 04:38:50;;;;;;;19.23;9.68;;;;;;;;;;5052940;28;20115;-83
2023/01/26 04:41:15;;;;;;;17.58;9.32;;;;;;;;;;5071338;28;20024;-79
2023/01/26 04:43:41;;;;;;;15.60;8.65;;;;;;;;;;5070932;28;20703;-82
2023/01/26 04:46:07;;;;;;;18.73;9.02;;;;;;;;;;5071195;28;20048;-83
2023/01/26 04:48:33;;;;;;;20.05;9.88;;;;;;;;;;5070871;28;20476;-84
2023/01/26 04:51:01;;;;;;;18.88;9.05;;;;;;;;;;5071822;28;20036;-82
2023/01/26 04:53:27;;;;;;;20.55;9.63;;;;;;;;;;5081067;28;20052;-82
2023/01/26 04:55:53;;;;;;;18.48;9.25;;;;;;;;;;5082576;28;20028;-82
2023/01/26 04:58:19;;;;;;;20.42;9.65;;;;;;;;;;5082168;28;20073;-83
2023/01/26 05:00:58;;;;;;;16.70;9.00;;;;;;;;;;5074992;28;20111;-81
2023/01/26 05:03:25;;;;;;;17.88;9.40;;;;;;;;;;5075145;28;20113;-84
2023/01/26 05:05:52;;;;;;;20.85;9.43;;;;;;;;;;5082040;28;20340;-83
2023/01/26 05:08:19;;;;;;;17.38;9.02;;;;;;;;;;5077661;28;20028;-81
2023/01/26 05:10:45;;;;;;;17.67;9.25;;;;;;;;;;5070323;28;20029;-76
2023/01/26 05:13:11;;;;;;;18.05;8.82;;;;;;;;;;5078015;28;20039;-81
2023/01/26 05:15:36;;;;;;;16.77;8.45;;;;;;;;;;5064022;28;20320;-82
2023/01/26 05:18:03;;;;;;;18.58;8.25;;;;;;;;;;5081824;28;20068;-80
2023/01/26 05:20:28;;;;;;;16.02;8.00;;;;;;;;;;5081762;28;20020;-77
2023/01/26 05:22:54;;;;;;;16.40;8.05;;;;;;;;;;5080668;28;20084;-75
2023/01/26 05:25:19;;;;;;;14.90;7.80;;;;;;;;;;5078342;28;20084;-82
2023/01/26 05:27:45;;;;;;;16.25;7.90;;;;;;;;;;5075473;28;20086;-83
2023/01/26 05:30:11;;;;;;;14.88;7.32;;;;;;;;;;5070061;28;20543;-83
2023/01/26 05:32:36;;;;;;;16.30;7.70;;;;;;;;;;5070817;28;20028;-84
2023/01/26 05:35:04;;;;;;;14.57;7.03;;;;;;;;;;5069886;28;20106;-81
2023/01/26 05:37:29;;;;;;;14.57;7.05;;;;;;;;;;5070036;28;20128;-82
2023/01/26 05:39:55;;;;;;;14.77;7.07;;;;;;;;;;5070042;28;20181;-80
2023/01/26 05:42:22;;;;;;;15.27;7.22;;;;;;;;;;5070020;28;20468;-83
2023/01/26 05:44:47;;;;;;;14.35;6.80;;;;;;;;;;5070071;28;20032;-82
2023/01/26 05:47:12;;;;;;;14.52;7.10;;;;;;;;;;5070134;28;20047;-79
2023/01/26 05:49:41;;;;;;;14.68;6.80;;;;;;;;;;5070143;28;20028;-85
2023/01/26 05:52:11;;;;;;;15.48;6.63;;;;;;;;;;5071609;28;20087;-83
2023/01/26 05:54:37;;;;;;;14.32;6.93;;;;;;;;;;5080696;28;20090;-83
2023/01/26 05:57:03;;;;;;;16.38;7.10;;;;;;;;;;5083317;28;20380;-79
2023/01/26 05:59:28;;;;;;;15.77;6.80;;;;;;;;;;5082117;28;20313;-83
2023/01/26 06:01:57;;;;;;;16.92;7.20;;;;;;;;;;5081231;28;20229;-78
2023/01/26 06:04:23;;;;;;;16.00;7.22;;;;;;;;;;5063573;28;20028;-81
2023/01/26 06:06:52;;;;;;;16.30;7.28;;;;;;;;;;5081140;28;20086;-84
2023/01/26 06:09:18;;;;;;;15.68;7.13;;;;;;;;;;5081128;28;20024;-81
2023/01/26 06:11:44;;;;;;;18.40;7.60;;;;;;;;;;5081268;28;20227;-79
2023/01/26 06:14:09;;;;;;;15.32;6.72;;;;;;;;;;5081029;28;20028;-76
2023/01/26 06:16:34;;;;;;;18.50;7.40;;;;;;;;;;5080043;28;20028;-80
2023/01/26 06:19:00;;;;;;;17.80;6.88;;;;;;;;;;5080541;28;20341;-78
2023/01/26 06:21:25;;;;;;;15.90;6.95;;;;;;;;;;5080964;28;20099;-83
2023/01/26 06:23:51;;;;;;;16.48;7.05;;;;;;;;;;5080473;28;20024;-77
2023/01/26 06:26:16;;;;;;;19.13;7.70;;;;;;;;;;5080812;28;20062;-82
2023/01/26 06:28:41;;;;;;;16.77;6.85;;;;;;;;;;5080762;28;20069;-80
2023/01/26 06:31:07;;;;;;;17.55;7.43;;;;;;;;;;5080957;28;20032;-79
2023/01/26 06:33:35;;;;;;;18.98;7.07;;;;;;;;;;5080647;28;20097;-80
2023/01/26 06:36:12;;;;;;;16.17;6.75;;;;;;;;;;5070578;28;20039;-74
2023/01/26 06:38:38;;;;;;;16.02;6.43;;;;;;;;;;5069118;28;20035;-75
2023/01/26 06:41:06;;;;;;;16.77;6.50;;;;;;;;;;5069253;28;20029;-74
2023/01/26 06:43:33;;;;;;;14.40;5.80;;;;;;;;;;5069340;28;20025;-79
2023/01/26 06:45:59;;;;;;;14.63;6.43;;;;;;;;;;5075228;28;20402;-83
2023/01/26 06:48:26;;;;;;;14.52;6.28;;;;;;;;;;5068755;28;20031;-79
2023/01/26 06:50:55;;;;;;;12.68;6.35;;;;;;;;;;5069131;28;20388;-82
2023/01/26 06:53:29;;;;;;;15.45;6.15;;;;;;;;;;5073219;28;20320;-69
2023/01/26 06:55:54;;;;;;;15.43;6.53;;;;;;;;;;5080654;28;20848;-83
2023/01/26 06:58:19;;;;;;;11.23;4.97;;;;;;;;;;5080682;28;20327;-82
2023/01/26 07:00:45;;;;;;;13.00;5.63;;;;;;;;;;5080313;28;20031;-79
2023/01/26 07:03:10;;;;;;;12.27;5.28;;;;;;;;;;5080255;28;20032;-80
2023/01/26 07:05:36;;;;;;;12.10;5.30;;;;;;;;;;5079953;28;20028;-82
2023/01/26 07:08:03;;;;;;;12.70;5.72;;;;;;;;;;5080464;28;20331;-79
2023/01/26 07:10:29;;;;;;;12.88;5.40;;;;;;;;;;5084388;28;20028;-83
2023/01/26 07:12:54;;;;;;;15.35;6.07;;;;;;;;;;5084606;28;20032;-80
2023/01/26 07:15:20;;;;;;;15.23;5.95;;;;;;;;;;5074076;28;20044;-81
2023/01/26 07:17:45;;;;;;;15.05;6.28;;;;;;;;;;5072874;28;20033;-80
2023/01/26 07:20:11;;;;;;;16.17;5.93;;;;;;;;;;5072120;28;20045;-82
2023/01/26 07:22:36;;;;;;;14.27;6.10;;;;;;;;;;5054777;28;20025;-82
2023/01/26 07:25:02;;;;;;;14.90;6.40;;;;;;;;;;5072588;28;20025;-81
2023/01/26 07:27:27;;;;;;;13.60;6.05;;;;;;;;;;5072588;28;20044;-82
2023/01/26 07:29:53;;;;;;;13.98;6.18;;;;;;;;;;5072207;28;20031;-80
2023/01/26 07:32:18;;;;;;;14.40;6.22;;;;;;;;;;5072381;28;20078;-80
2023/01/26 07:34:44;;;;;;;13.85;6.30;;;;;;;;;;5071656;28;20028;-81
2023/01/26 07:37:09;;;;;;;15.63;6.63;;;;;;;;;;5072584;28;20028;-80
2023/01/26 07:39:35;;;;;;;15.40;6.50;;;;;;;;;;5072239;28;20064;-76
2023/01/26 07:42:00;;;;;;;15.95;7.13;;;;;;;;;;5072503;28;20051;-79
2023/01/26 07:44:26;;;;;;;14.98;6.38;;;;;;;;;;5071826;28;20051;-83
2023/01/26 07:46:52;;;;;;;15.35;6.68;;;;;;;;;;5072762;28;20032;-79
2023/01/26 07:49:17;;;;;;;16.45;7.18;;;;;;;;;;5071680;28;20400;-75
2023/01/26 07:51:43;;;;;;;14.43;6.40;;;;;;;;;;5071815;28;20032;-83
2023/01/26 07:54:10;;;;;;;14.45;6.22;;;;;;;;;;5071691;28;20025;-77
2023/01/26 07:56:35;;;;;;;14.75;6.78;;;;;;;;;;5071949;28;20032;-80
2023/01/26 07:59:00;;;;;;;15.30;6.85;;;;;;;;;;5072240;28;20100;-82
2023/01/26 08:01:26;;;;;;;17.48;7.00;;;;;;;;;;5072792;28;20051;-73
2023/01/26 08:03:52;;;;;;;16.58;7.07;;;;;;;;;;5071096;28;20115;-70
2023/01/26 08:06:18;;;;;;;14.30;6.40;;;;;;;;;;5070433;28;20516;-71
2023/01/26 08:08:52;;;;;;;16.13;6.75;;;;;;;;;;5070503;28;20031;-67
2023/01/26 08:11:21;;;;;;;14.23;6.70;;;;;;;;;;5069982;28;20028;-82
2023/01/26 08:13:46;;;;;;;16.67;7.25;;;;;;;;;;5081830;28;20050;-83
2023/01/26 08:16:12;;;;;;;15.65;7.05;;;;;;;;;;5082029;28;20037;-81
2023/01/26 08:18:39;;;;;;;16.23;7.25;;;;;;;;;;5078039;28;20545;-75
2023/01/26 08:21:04;;;;;;;14.43;7.18;;;;;;;;;;5052057;28;20025;-74
2023/01/26 08:23:29;;;;;;;14.65;7.13;;;;;;;;;;5070857;28;20070;-78
2023/01/26 08:26:03;;;;;;;17.08;7.60;;;;;;;;;;5073028;28;20507;-77
2023/01/26 08:28:30;;;;;;;15.75;7.20;;;;;;;;;;5070637;28;20024;-76
2023/01/26 08:31:01;;;;;;;16.77;7.40;;;;;;;;;;5069680;28;20476;-75
2023/01/26 08:33:27;;;;;;;;;;;;;;;;;;5070279;28;20361;-75
2023/01/26 08:35:52;;;;;;;15.00;7.10;;;;;;;;;;5069999;28;19918;-76
2023/01/26 08:38:17;;;;;;;17.92;8.07;;;;;;;;;;5070299;28;20023;-72
2023/01/26 08:40:43;;;;;;;16.55;8.18;;;;;;;;;;5070447;28;20043;-69
2023/01/26 08:43:08;;;;;;;16.77;7.50;;;;;;;;;;5070080;28;20025;-70
2023/01/26 08:45:33;;;;;;;16.75;7.82;;;;;;;;;;5072113;28;20667;-70
2023/01/26 08:47:59;;;;;;;17.92;8.52;;;;;;;;;;5070158;28;20036;-67
2023/01/26 08:50:25;;;;;;;17.85;8.00;;;;;;;;;;5061539;28;20112;-73
2023/01/26 08:52:50;;;;;;;17.73;8.23;;;;;;;;;;5072714;28;20023;-68
2023/01/26 08:55:15;;;;;;;17.48;8.23;;;;;;;;;;5071157;28;20070;-68
2023/01/26 08:57:41;;;;;;;18.85;8.43;;;;;;;;;;5067719;28;20400;-69
2023/01/26 09:00:07;;;;;;;17.20;8.75;;;;;;;;;;5069042;28;20039;-69
2023/01/26 09:02:32;;;;;;;14.80;7.47;;;;;;;;;;4990800;28;1869566;-70
2023/01/26 09:04:58;;;;;;;17.60;8.02;;;;;;;;;;5081831;28;20044;-68
2023/01/26 09:07:23;;;;;;;16.63;7.88;;;;;;;;;;5079302;28;20324;-70
2023/01/26 09:09:48;;;;;;;17.42;8.23;;;;;;;;;;5082345;28;20396;-72
2023/01/26 09:12:14;;;;;;;15.98;7.65;;;;;;;;;;5080955;28;20031;-75
2023/01/26 09:14:40;;;;;;;17.83;8.07;;;;;;;;;;5081379;28;20028;-69
2023/01/26 09:17:06;;;;;;;16.77;7.57;;;;;;;;;;5078558;28;20032;-72
2023/01/26 09:19:31;;;;;;;16.58;7.60;;;;;;;;;;5081443;28;20035;-77
2023/01/26 09:21:57;;;;;;;16.27;7.63;;;;;;;;;;5080548;28;20052;-78
2023/01/26 09:24:23;;;;;;;14.80;7.55;;;;;;;;;;5077843;28;20055;-75
2023/01/26 09:26:48;;;;;;;14.85;7.53;;;;;;;;;;5078706;28;20032;-75
2023/01/26 09:29:14;;;;;;;16.40;7.97;;;;;;;;;;5079590;28;20031;-71
2023/01/26 09:31:39;;;;;;;16.75;8.30;;;;;;;;;;5075698;28;20118;-72
2023/01/26 09:34:05;;;;;;;15.63;7.82;;;;;;;;;;5071042;28;20024;-79
2023/01/26 09:36:32;;;;;;;15.43;7.85;;;;;;;;;;5078642;28;20516;-77
2023/01/26 09:38:57;;;;;;;17.08;8.23;;;;;;;;;;5075721;28;20052;-74
2023/01/26 09:41:47;;;;;;;14.65;7.57;;;;;;;;;;5070530;28;20024;-76
2023/01/26 09:44:19;;;;;;;14.30;7.35;;;;;;;;;;5069848;28;20028;-76
2023/01/26 09:47:06;;;;;;;13.27;6.88;;;;;;;;;;5075594;28;20025;-74
2023/01/26 09:49:55;;;;;;;16.00;7.43;;;;;;;;;;5069320;28;20043;-72
2023/01/26 09:52:34;;;;;;;13.38;6.88;;;;;;;;;;5068314;28;20079;-72
2023/01/26 09:55:04;;;;;;;14.93;7.40;;;;;;;;;;5068619;28;20044;-74
2023/01/26 09:57:36;;;;;;;13.82;6.85;;;;;;;;;;5068016;28;20067;-76
2023/01/26 10:00:36;;;;;;;14.35;7.00;;;;;;;;;;5069151;28;20036;-76
2023/01/26 10:03:30;;;;;;;13.43;7.00;;;;;;;;;;5050898;28;20088;-71
2023/01/26 10:06:20;;;;;;;12.95;6.90;;;;;;;;;;5065321;28;20090;-76
2023/01/26 10:08:47;;;;;;;13.57;7.20;;;;;;;;;;5069381;28;20032;-76
2023/01/26 10:11:26;;;;;;;13.70;7.03;;;;;;;;;;5051467;28;20547;-75
2023/01/26 10:13:56;;;;;;;14.32;7.07;;;;;;;;;;5069010;28;20090;-70
2023/01/26 10:16:23;;;;;;;13.75;6.70;;;;;;;;;;5068852;28;20032;-69
2023/01/26 10:19:01;;;;;;;13.32;6.70;;;;;;;;;;5068366;28;20109;-72
2023/01/26 10:21:32;;;;;;;12.20;6.65;;;;;;;;;;5069143;28;20093;-75
2023/01/26 10:23:59;;;;;;;;;;;;;;;;;;5069698;28;20117;-76
2023/01/26 10:26:29;;;;;;;13.05;6.65;;;;;;;;;;5069245;28;19919;-76
2023/01/26 10:28:55;;;;;;;13.60;7.03;;;;;;;;;;5084421;28;20055;-77
2023/01/26 10:31:24;;;;;;;13.45;7.55;;;;;;;;;;5070796;28;20408;-76
2023/01/26 10:33:57;;;;;;;12.57;6.78;;;;;;;;;;5069145;28;20036;-77
2023/01/26 10:36:23;;;;;;;14.23;7.30;;;;;;;;;;5068060;28;20596;-77
2023/01/26 10:38:51;;;;;;;13.60;7.63;;;;;;;;;;5069736;28;20048;-75
2023/01/26 10:41:25;;;;;;;14.95;7.72;;;;;;;;;;5069081;28;20024;-77
2023/01/26 10:43:57;;;;;;;14.52;7.63;;;;;;;;;;5068946;28;20029;-77
2023/01/26 10:46:31;;;;;;;14.77;7.40;;;;;;;;;;5067837;28;20044;-73
2023/01/26 10:49:01;;;;;;;13.07;6.68;;;;;;;;;;5068604;28;20025;-76
2023/01/26 10:51:29;;;;;;;13.20;6.53;;;;;;;;;;5068961;28;20044;-71
2023/01/26 10:54:10;;;;;;;12.52;6.75;;;;;;;;;;5069319;28;20074;-69
2023/01/26 10:56:36;;;;;;;16.58;6.72;;;;;;;;;;5069161;28;20025;-73
2023/01/26 10:59:07;;;;;;;12.23;6.20;;;;;;;;;;5068983;28;20033;-69
2023/01/26 11:01:57;;;;;;;11.15;6.22;;;;;;;;;;5069150;28;20040;-69
2023/01/26 11:04:24;;;;;;;11.25;6.22;;;;;;;;;;5068434;28;20178;-76
2023/01/26 11:06:50;;;;;;;11.50;5.90;;;;;;;;;;5068938;28;20075;-73
2023/01/26 11:09:24;;;;;;;10.60;5.50;;;;;;;;;;5068769;28;20024;-70
2023/01/26 11:12:01;;;;;;;11.35;5.82;;;;;;;;;;5068848;28;20123;-74
2023/01/26 11:14:28;;;;;;;9.98;5.70;;;;;;;;;;5069116;28;20021;-68
2023/01/26 11:16:56;;;;;;;10.40;5.43;;;;;;;;;;5068808;28;20025;-68
2023/01/26 11:19:46;;;;;;;10.27;5.35;;;;;;;;;;5071036;28;20120;-76
2023/01/26 11:22:21;;;;;;;11.98;5.97;;;;;;;;;;5069076;28;20397;-73
2023/01/26 11:25:16;;;;;;;10.57;5.88;;;;;;;;;;5069083;28;20036;-69
2023/01/26 11:27:59;;;;;;;14.50;6.50;;;;;;;;;;5061271;28;20048;-77
2023/01/26 11:30:36;;;;;;;13.50;7.15;;;;;;;;;;5051962;28;20627;-76
2023/01/26 11:33:38;;;;;;;14.70;8.00;;;;;;;;;;5068643;28;20028;-77
2023/01/26 11:36:20;;;;;;;15.30;7.38;;;;;;;;;;5068875;28;20017;-76
2023/01/26 11:39:15;;;;;;;12.13;7.10;;;;;;;;;;5072247;28;20488;-71
2023/01/26 11:42:09;;;;;;;14.15;7.20;;;;;;;;;;5072983;28;20020;-71
2023/01/26 11:44:53;;;;;;;12.18;6.68;;;;;;;;;;5068705;28;20483;-76
2023/01/26 11:47:37;;;;;;;11.82;6.28;;;;;;;;;;5068450;28;20025;-75
2023/01/26 11:50:37;;;;;;;11.82;5.78;;;;;;;;;;5068492;28;20021;-68
2023/01/26 11:53:23;;;;;;;11.60;5.78;;;;;;;;;;5068301;28;20040;-68
2023/01/26 11:56:19;;;;;;;17.55;7.57;;;;;;;;;;5070783;28;20028;-70
2023/01/26 11:58:51;;;;;;;12.98;6.40;;;;;;;;;;5071865;28;20017;-70
2023/01/26 12:01:27;;;;;;;12.07;5.88;;;;;;;;;;5076191;28;20428;-71
2023/01/26 12:03:53;;;;;;;9.38;5.43;;;;;;;;;;5076138;28;20036;-75
2023/01/26 12:06:26;;;;;;;8.98;5.07;;;;;;;;;;5076157;28;20032;-77
2023/01/26 12:09:19;;;;;;;10.15;5.28;;;;;;;;;;5073053;28;20551;-78
2023/01/26 12:12:03;;;;;;;10.95;5.88;;;;;;;;;;5071646;28;20029;-77
2023/01/26 12:14:49;;;;;;;9.85;5.25;;;;;;;;;;5069394;28;20391;-78
2023/01/26 12:17:29;;;;;;;10.05;5.47;;;;;;;;;;5044398;28;20432;-72
2023/01/26 12:20:39;;;;;;;9.20;5.20;;;;;;;;;;5071703;28;20103;-75
2023/01/26 12:23:07;;;;;;;9.40;5.47;;;;;;;;;;4989968;28;20030;-78
2023/01/26 12:25:36;;;;;;;11.77;5.30;;;;;;;;;;4987446;28;20129;-78
2023/01/26 12:28:23;;;;;;;10.10;5.72;;;;;;;;;;5032343;28;20029;-76
2023/01/26 12:30:59;;;;;;;10.00;5.28;;;;;;;;;;5063162;28;20036;-80
2023/01/26 12:33:25;;;;;;;8.30;4.70;;;;;;;;;;5074940;28;20024;-79
2023/01/26 12:35:59;;;;;;;9.27;4.97;;;;;;;;;;5077998;28;20429;-74
2023/01/26 12:39:01;;;;;;;9.15;5.13;;;;;;;;;;5071323;28;20505;-77
2023/01/26 12:41:37;;;;;;;9.20;4.70;;;;;;;;;;5070531;28;20028;-75
2023/01/26 12:44:08;;;;;;;9.07;4.90;;;;;;;;;;5070206;28;20128;-77
2023/01/26 12:46:39;;;;;;;8.48;4.82;;;;;;;;;;5067089;28;20396;-73
2023/01/26 12:49:23;;;;;;;7.97;4.95;;;;;;;;;;5060967;28;20070;-74
2023/01/26 12:52:20;;;;;;;7.97;5.13;;;;;;;;;;5056229;28;20029;-75
2023/01/26 12:54:56;;;;;;;10.07;5.30;;;;;;;;;;5052773;28;20040;-76
2023/01/26 12:57:28;;;;;;;8.63;5.10;;;;;;;;;;5070441;28;20024;-76
2023/01/26 13:00:15;;;;;;;9.63;5.15;;;;;;;;;;5070514;28;20108;-73
2023/01/26 13:02:46;;;;;;;10.15;4.45;;;;;;;;;;5073359;28;20059;-72
2023/01/26 13:05:33;;;;;;;8.32;4.53;;;;;;;;;;5069227;28;20051;-76
2023/01/26 13:08:27;;;;;;;9.30;4.47;;;;;;;;;;5071258;28;20028;-73
2023/01/26 13:10:52;;;;;;;7.25;4.50;;;;;;;;;;5070117;28;20032;-73
2023/01/26 13:13:18;;;;;;;7.25;4.30;;;;;;;;;;5073945;28;20071;-73
2023/01/26 13:15:43;;;;;;;7.70;4.00;;;;;;;;;;5077765;28;20392;-74
2023/01/26 13:18:15;;;;;;;7.60;4.35;;;;;;;;;;5052823;28;20028;-73
2023/01/26 13:20:48;;;;;;;7.57;4.32;;;;;;;;;;5069807;28;20108;-73
2023/01/26 13:23:41;;;;;;;9.50;4.30;;;;;;;;;;5070317;28;20078;-75
2023/01/26 13:26:16;;;;;;;7.95;4.35;;;;;;;;;;5052297;28;20125;-76
2023/01/26 13:28:42;;;;;;;7.57;4.30;;;;;;;;;;5069907;28;20031;-76
2023/01/26 13:31:09;;;;;;;6.82;3.97;;;;;;;;;;5070168;28;20125;-75
2023/01/26 13:33:35;;;;;;;6.93;4.28;;;;;;;;;;5069695;28;20031;-77
2023/01/26 13:36:14;;;;;;;8.57;4.72;;;;;;;;;;5052130;28;20054;-76
2023/01/26 13:38:44;;;;;;;9.88;4.65;;;;;;;;;;5068411;28;20621;-74
2023/01/26 13:41:21;;;;;;;9.98;4.70;;;;;;;;;;5060322;28;20056;-73
2023/01/26 13:44:06;;;;;;;7.30;4.30;;;;;;;;;;5072099;28;20446;-74
2023/01/26 13:46:47;;;;;;;7.20;4.22;;;;;;;;;;5054516;28;20400;-76
2023/01/26 13:49:23;;;;;;;;;;;;;;;;;;5075694;28;20483;-78
2023/01/26 13:51:48;;;;;;;8.15;4.07;;;;;;;;;;5081339;28;19909;-75
2023/01/26 13:54:16;;;;;;;8.95;4.70;;;;;;;;;;5073642;28;20051;-75
2023/01/26 13:56:58;;;;;;;8.60;4.53;;;;;;;;;;5069737;28;20086;-75
2023/01/26 13:59:24;;;;;;;7.47;4.35;;;;;;;;;;5070662;28;20107;-74
2023/01/26 14:01:52;;;;;;;8.85;4.30;;;;;;;;;;5054733;28;20076;-75
2023/01/26 14:04:19;;;;;;;8.55;4.65;;;;;;;;;;5071375;28;20035;-75
2023/01/26 14:07:04;;;;;;;6.93;4.00;;;;;;;;;;5077867;28;20032;-75
2023/01/26 14:09:32;;;;;;;9.65;4.30;;;;;;;;;;5072973;28;20036;-73
2023/01/26 14:12:05;;;;;;;9.25;4.50;;;;;;;;;;5070555;28;20498;-75
2023/01/26 14:14:33;;;;;;;8.18;4.32;;;;;;;;;;5073378;28;20032;-76
2023/01/26 14:17:00;;;;;;;7.90;4.38;;;;;;;;;;5054033;28;20124;-75
2023/01/26 14:19:27;;;;;;;8.88;4.60;;;;;;;;;;5073343;28;20027;-76
2023/01/26 14:21:59;;;;;;;8.10;4.15;;;;;;;;;;5070735;28;20028;-74
2023/01/26 14:24:40;;;;;;;7.07;4.28;;;;;;;;;;5052919;28;20108;-74
2023/01/26 14:27:21;;;;;;;7.32;4.35;;;;;;;;;;5068157;28;20031;-74
2023/01/26 14:29:46;;;;;;;8.80;4.60;;;;;;;;;;5071778;28;20033;-75
2023/01/26 14:32:15;;;;;;;8.20;3.90;;;;;;;;;;5069685;28;20138;-77
2023/01/26 14:34:52;;;;;;;7.50;4.10;;;;;;;;;;5051879;28;20029;-73
2023/01/26 14:37:17;;;;;;;8.75;4.07;;;;;;;;;;5067964;28;20040;-74
2023/01/26 14:39:46;;;;;;;8.05;4.30;;;;;;;;;;5069619;28;20029;-74
2023/01/26 14:42:18;;;;;;;7.15;3.90;;;;;;;;;;5050354;28;20029;-74
2023/01/26 14:44:43;;;;;;;7.45;4.20;;;;;;;;;;5068439;28;20067;-75
2023/01/26 14:47:25;;;;;;;10.77;4.35;;;;;;;;;;5068515;28;20056;-78
2023/01/26 14:49:57;;;;;;;7.47;4.13;;;;;;;;;;5067674;28;20097;-75
2023/01/26 14:52:27;;;;;;;7.22;4.38;;;;;;;;;;5035864;28;20126;-75
2023/01/26 14:54:58;;;;;;;6.80;4.10;;;;;;;;;;5068204;28;20067;-74
2023/01/26 14:57:26;;;;;;;8.65;4.38;;;;;;;;;;5067950;28;20048;-74
2023/01/26 14:59:56;;;;;;;7.15;4.35;;;;;;;;;;5068582;28;20024;-75
2023/01/26 15:02:37;;;;;;;7.10;4.10;;;;;;;;;;5068781;28;20087;-75
2023/01/26 15:05:13;;;;;;;7.47;4.18;;;;;;;;;;5068774;28;20032;-74
2023/01/26 15:07:49;;;;;;;8.32;4.30;;;;;;;;;;5069309;28;20013;-75
2023/01/26 15:10:26;;;;;;;10.48;4.70;;;;;;;;;;5068704;28;20454;-75
2023/01/26 15:13:05;;;;;;;7.78;4.25;;;;;;;;;;5068919;28;20107;-74
2023/01/26 15:15:34;;;;;;;7.38;4.35;;;;;;;;;;5068332;28;20496;-74
2023/01/26 15:18:20;;;;;;;7.65;4.40;;;;;;;;;;5068897;28;20553;-75
2023/01/26 15:21:19;;;;;;;8.77;4.10;;;;;;;;;;5068516;28;20043;-74
2023/01/26 15:23:49;;;;;;;9.55;4.65;;;;;;;;;;5069107;28;20043;-74
2023/01/26 15:26:41;;;;;;;7.00;3.90;;;;;;;;;;5068392;28;20665;-73
2023/01/26 15:29:27;;;;;;;8.23;4.05;;;;;;;;;;5064939;28;20031;-74
2023/01/26 15:31:55;;;;;;;7.57;3.88;;;;;;;;;;5072424;28;20115;-75
2023/01/26 15:34:35;;;;;;;8.75;4.43;;;;;;;;;;5072322;28;20024;-75
2023/01/26 15:37:20;;;;;;;8.95;4.32;;;;;;;;;;5072298;28;20089;-74